Time;durP1;ratioP1;P1;durP2;ratioP2;P2;SDS_P1;SDS_P2;PMS_P1;PMS_P2;Temp;Humidity;BMP_temperature;BMP_pressure;BME280_temperature;BME280_humidity;BME280_pressure;Samples;Min_cycle;Max_cycle;Signal;HPM_P1;HPM_P2
2024/02/13 00:01:01;;;;;;;0.70;0.70;;;;;;;1.69;100.00;99188.50;5031707;28;20383;-58
2024/02/13 00:03:29;;;;;;;0.80;0.80;;;;;;;1.84;100.00;99194.56;5029698;28;20048;-58
2024/02/13 00:05:58;;;;;;;0.63;0.63;;;;;;;1.90;100.00;99201.78;5027188;28;20599;-58
2024/02/13 00:08:27;;;;;;;0.60;0.60;;;;;;;1.92;100.00;99201.56;5019887;28;20418;-58
2024/02/13 00:10:54;;;;;;;0.60;0.60;;;;;;;1.90;100.00;99207.06;5025751;28;20502;-62
2024/02/13 00:13:22;;;;;;;0.70;0.70;;;;;;;1.90;100.00;99201.78;5037131;28;20491;-59
2024/02/13 00:15:49;;;;;;;0.60;0.60;;;;;;;1.92;100.00;99209.50;5031971;28;20609;-58
2024/02/13 00:18:18;;;;;;;0.60;0.60;;;;;;;1.90;100.00;99215.00;5032238;28;20041;-58
2024/02/13 00:20:46;;;;;;;0.65;0.65;;;;;;;1.73;100.00;99221.50;5030033;28;20136;-58
2024/02/13 00:23:13;;;;;;;0.70;0.70;;;;;;;1.77;100.00;99212.19;5013733;28;20450;-58
2024/02/13 00:25:40;;;;;;;0.60;0.60;;;;;;;1.75;100.00;99218.66;5033376;28;20430;-58
2024/02/13 00:28:08;;;;;;;0.60;0.60;;;;;;;1.80;100.00;99227.69;5028248;28;20424;-58
2024/02/13 00:30:41;;;;;;;0.52;0.52;;;;;;;1.67;100.00;99227.50;5027680;28;20068;-58
2024/02/13 00:33:29;;;;;;;0.50;0.50;;;;;;;1.69;100.00;99225.50;5033980;28;20041;-59
2024/02/13 00:36:16;;;;;;;0.52;0.52;;;;;;;1.66;100.00;99225.88;5027370;28;20053;-58
2024/02/13 00:38:45;;;;;;;0.68;0.68;;;;;;;1.60;100.00;99231.88;5038718;28;20052;-58
2024/02/13 00:41:13;;;;;;;0.80;0.80;;;;;;;1.48;100.00;99239.47;5033718;28;20045;-58
2024/02/13 00:43:40;;;;;;;0.60;0.60;;;;;;;1.43;100.00;99245.31;5032485;28;20095;-58
2024/02/13 00:46:10;;;;;;;0.73;0.73;;;;;;;1.45;100.00;99240.66;5034044;28;20045;-58
2024/02/13 00:48:39;;;;;;;0.70;0.70;;;;;;;1.55;100.00;99239.53;5043463;28;20518;-58
2024/02/13 00:51:06;;;;;;;0.60;0.60;;;;;;;1.47;100.00;99243.94;5032360;28;20052;-58
2024/02/13 00:53:37;;;;;;;0.60;0.60;;;;;;;1.50;100.00;99248.03;5035822;28;20049;-58
2024/02/13 00:56:06;;;;;;;0.60;0.60;;;;;;;1.62;100.00;99258.94;5029551;28;20042;-58
2024/02/13 00:58:35;;;;;;;0.75;0.75;;;;;;;1.80;100.00;99248.81;5036076;28;20134;-58
2024/02/13 01:01:03;;;;;;;0.60;0.60;;;;;;;1.89;100.00;99241.59;5033751;28;20037;-58
2024/02/13 01:03:30;;;;;;;0.73;0.73;;;;;;;2.02;100.00;99248.84;5038818;28;20078;-58
2024/02/13 01:05:59;;;;;;;0.57;0.57;;;;;;;1.93;100.00;99243.69;5035561;28;20052;-58
2024/02/13 01:08:26;;;;;;;0.60;0.60;;;;;;;1.80;100.00;99253.28;5040570;28;20052;-58
2024/02/13 01:10:53;;;;;;;0.70;0.70;;;;;;;1.79;100.00;99251.63;5036728;28;20053;-58
2024/02/13 01:13:20;;;;;;;0.60;0.60;;;;;;;1.73;100.00;99258.50;5035680;28;20784;-58
2024/02/13 01:15:48;;;;;;;0.60;0.60;;;;;;;1.64;100.00;99257.75;5034761;28;20045;-58
2024/02/13 01:18:15;;;;;;;0.68;0.68;;;;;;;1.65;100.00;99255.97;5037934;28;20501;-58
2024/02/13 01:20:42;;;;;;;0.68;0.68;;;;;;;1.69;100.00;99262.50;5034727;28;20053;-58
2024/02/13 01:23:12;;;;;;;0.65;0.65;;;;;;;1.68;100.00;99263.50;5040704;28;20128;-58
2024/02/13 01:25:39;;;;;;;0.90;0.90;;;;;;;1.62;100.00;99266.88;5038646;28;20572;-58
2024/02/13 01:28:07;;;;;;;0.60;0.60;;;;;;;1.57;100.00;99270.06;5035710;28;20094;-58
2024/02/13 01:30:35;;;;;;;0.57;0.57;;;;;;;1.50;100.00;99275.28;5035291;28;20659;-58
2024/02/13 01:33:02;;;;;;;0.70;0.70;;;;;;;1.39;100.00;99281.00;5037008;28;20111;-58
2024/02/13 01:35:29;;;;;;;0.60;0.60;;;;;;;1.29;100.00;99280.44;5030886;28;20057;-58
2024/02/13 01:37:57;;;;;;;0.70;0.70;;;;;;;1.27;100.00;99283.28;5039501;28;20530;-58
2024/02/13 01:40:25;;;;;;;0.70;0.70;;;;;;;1.20;100.00;99286.81;5030143;28;20049;-58
2024/02/13 01:42:53;;;;;;;0.50;0.50;;;;;;;1.30;100.00;99284.75;5034549;28;20148;-57
2024/02/13 01:45:21;;;;;;;0.60;0.60;;;;;;;1.15;100.00;99286.53;5033249;28;20052;-58
2024/02/13 01:47:58;;;;;;;0.60;0.60;;;;;;;1.03;100.00;99289.63;5035011;28;20047;-58
2024/02/13 01:50:27;;;;;;;0.60;0.60;;;;;;;1.03;100.00;99294.09;5031090;28;20041;-58
2024/02/13 01:52:54;;;;;;;0.60;0.60;;;;;;;1.04;100.00;99295.72;5029704;28;20098;-58
2024/02/13 01:55:23;;;;;;;0.80;0.80;;;;;;;1.11;100.00;99301.09;5032674;28;20127;-58
2024/02/13 01:57:55;;;;;;;0.75;0.75;;;;;;;1.13;100.00;99299.09;5033915;28;20102;-58
2024/02/13 02:00:22;;;;;;;0.60;0.60;;;;;;;1.03;100.00;99299.38;5036748;28;20041;-58
2024/02/13 02:02:50;;;;;;;0.68;0.68;;;;;;;0.95;100.00;99297.63;5036027;28;20399;-57
2024/02/13 02:05:17;;;;;;;0.57;0.57;;;;;;;0.99;100.00;99308.63;5036115;28;20056;-58
2024/02/13 02:07:48;;;;;;;0.65;0.65;;;;;;;1.11;100.00;99309.03;5030203;28;20106;-58
2024/02/13 02:10:15;;;;;;;0.70;0.70;;;;;;;1.16;100.00;99304.84;5035911;28;20041;-58
2024/02/13 02:12:49;;;;;;;0.88;0.88;;;;;;;0.99;100.00;99311.25;5033654;28;20045;-58
2024/02/13 02:15:18;;;;;;;0.70;0.70;;;;;;;0.79;100.00;99313.56;5025139;28;20084;-58
2024/02/13 02:17:51;;;;;;;0.80;0.80;;;;;;;0.72;100.00;99312.63;5030152;28;20071;-58
2024/02/13 02:20:19;;;;;;;0.60;0.60;;;;;;;0.66;100.00;99311.53;5035209;28;20045;-58
2024/02/13 02:22:47;;;;;;;0.80;0.80;;;;;;;0.83;100.00;99314.88;5034764;28;20645;-58
2024/02/13 02:25:18;;;;;;;0.63;0.63;;;;;;;0.92;100.00;99313.78;5034531;28;20079;-58
2024/02/13 02:27:51;;;;;;;0.60;0.60;;;;;;;0.84;100.00;99316.50;5028855;28;20048;-58
2024/02/13 02:30:18;;;;;;;0.80;0.80;;;;;;;0.81;100.00;99328.22;5031739;28;20049;-58
2024/02/13 02:32:56;;;;;;;0.70;0.70;;;;;;;0.77;100.00;99334.03;5036098;28;20439;-58
2024/02/13 02:35:23;;;;;;;0.63;0.63;;;;;;;0.78;100.00;99333.88;5031453;28;20326;-58
2024/02/13 02:37:52;;;;;;;0.80;0.80;;;;;;;0.77;100.00;99331.41;5037514;28;20049;-58
2024/02/13 02:40:20;;;;;;;0.70;0.70;;;;;;;0.73;100.00;99330.13;5031694;28;20060;-58
2024/02/13 02:42:48;;;;;;;0.70;0.70;;;;;;;0.86;100.00;99331.16;5035243;28;20041;-58
2024/02/13 02:45:16;;;;;;;0.82;0.82;;;;;;;0.79;100.00;99335.50;5033740;28;20059;-58
2024/02/13 02:47:43;;;;;;;0.80;0.80;;;;;;;0.80;100.00;99338.94;5030678;28;20056;-58
2024/02/13 02:50:11;;;;;;;0.80;0.80;;;;;;;0.71;100.00;99348.75;5029653;28;20072;-58
2024/02/13 02:52:38;;;;;;;0.60;0.60;;;;;;;0.71;100.00;99345.31;5025913;28;20042;-58
2024/02/13 02:55:06;;;;;;;0.70;0.70;;;;;;;0.59;100.00;99350.16;5031023;28;20037;-58
2024/02/13 02:57:35;;;;;;;0.75;0.75;;;;;;;0.51;100.00;99343.13;5039042;28;20055;-58
2024/02/13 03:00:03;;;;;;;0.80;0.80;;;;;;;0.52;100.00;99347.38;5033896;28;20041;-58
2024/02/13 03:02:32;;;;;;;0.77;0.77;;;;;;;0.55;100.00;99351.50;5029945;28;20048;-58
2024/02/13 03:04:59;;;;;;;0.90;0.90;;;;;;;0.59;100.00;99345.69;5025623;28;20069;-58
2024/02/13 03:07:27;;;;;;;0.70;0.70;;;;;;;0.61;100.00;99354.25;5030442;28;20055;-58
2024/02/13 03:09:54;;;;;;;0.60;0.60;;;;;;;0.53;100.00;99359.59;5038024;28;20578;-58
2024/02/13 03:12:21;;;;;;;0.70;0.70;;;;;;;0.56;100.00;99355.78;5036807;28;20574;-58
2024/02/13 03:14:50;;;;;;;0.80;0.80;;;;;;;0.53;100.00;99361.41;5033062;28;20306;-58
2024/02/13 03:17:18;;;;;;;0.70;0.70;;;;;;;0.53;100.00;99362.22;5027373;28;20025;-58
2024/02/13 03:19:45;;;;;;;0.70;0.70;;;;;;;0.54;100.00;99366.50;5034595;28;20044;-59
2024/02/13 03:22:15;;;;;;;0.57;0.57;;;;;;;0.46;100.00;99374.47;5029184;28;20041;-58
2024/02/13 03:24:42;;;;;;;0.70;0.70;;;;;;;0.47;100.00;99380.56;5031617;28;20582;-58
2024/02/13 03:27:09;;;;;;;0.75;0.75;;;;;;;0.43;100.00;99377.47;5032417;28;20505;-58
2024/02/13 03:29:56;;;;;;;0.70;0.70;;;;;;;0.48;100.00;99374.31;5037148;28;20782;-58
2024/02/13 03:32:23;;;;;;;0.70;0.70;;;;;;;0.59;100.00;99379.97;5029896;28;20053;-58
2024/02/13 03:34:50;;;;;;;0.80;0.80;;;;;;;0.68;100.00;99386.06;5031539;28;20046;-58
2024/02/13 03:37:17;;;;;;;0.70;0.70;;;;;;;0.76;100.00;99383.34;5032198;28;20404;-58
2024/02/13 03:39:45;;;;;;;0.60;0.60;;;;;;;0.81;100.00;99385.47;5037830;28;20102;-59
2024/02/13 03:42:12;;;;;;;0.70;0.70;;;;;;;0.79;100.00;99377.72;5037506;28;20052;-58
2024/02/13 03:44:39;;;;;;;0.80;0.80;;;;;;;0.71;100.00;99380.41;5026977;28;20049;-59
2024/02/13 03:47:10;;;;;;;0.70;0.70;;;;;;;0.86;100.00;99380.47;5033677;28;20075;-58
2024/02/13 03:49:37;;;;;;;0.70;0.70;;;;;;;0.85;100.00;99382.31;5034297;28;20147;-59
2024/02/13 03:52:04;;;;;;;0.70;0.70;;;;;;;0.84;100.00;99388.56;5025626;28;20068;-59
2024/02/13 03:54:32;;;;;;;0.70;0.70;;;;;;;0.82;100.00;99387.09;5023159;28;20168;-58
2024/02/13 03:57:00;;;;;;;0.75;0.75;;;;;;;0.79;100.00;99382.19;5037692;28;20065;-58
2024/02/13 03:59:28;;;;;;;0.80;0.80;;;;;;;0.81;100.00;99390.75;5032132;28;20160;-58
2024/02/13 04:01:55;;;;;;;0.80;0.80;;;;;;;0.81;100.00;99386.28;5034975;28;20120;-58
2024/02/13 04:04:24;;;;;;;0.70;0.70;;;;;;;0.95;100.00;99387.34;5033187;28;20037;-58
2024/02/13 04:06:51;;;;;;;0.60;0.60;;;;;;;1.07;100.00;99395.66;5034008;28;20041;-58
2024/02/13 04:09:18;;;;;;;0.70;0.70;;;;;;;1.05;100.00;99395.03;5039116;28;20059;-59
2024/02/13 04:11:46;;;;;;;0.77;0.77;;;;;;;1.01;100.00;99394.56;5035005;28;20073;-59
2024/02/13 04:14:13;;;;;;;0.80;0.80;;;;;;;0.98;100.00;99400.19;5032335;28;20048;-59
2024/02/13 04:16:41;;;;;;;0.50;0.50;;;;;;;0.91;100.00;99396.59;5031944;28;20048;-59
2024/02/13 04:19:08;;;;;;;0.68;0.68;;;;;;;0.77;100.00;99398.16;5037704;28;20135;-59
2024/02/13 04:21:37;;;;;;;0.70;0.70;;;;;;;0.78;100.00;99386.63;5032237;28;20087;-59
2024/02/13 04:24:06;;;;;;;0.60;0.60;;;;;;;0.78;100.00;99386.63;5033315;28;20045;-58
2024/02/13 04:26:34;;;;;;;0.70;0.70;;;;;;;0.79;100.00;99393.53;5037323;28;20056;-58
2024/02/13 04:29:01;;;;;;;0.68;0.68;;;;;;;0.85;100.00;99397.31;5037753;28;20033;-58
2024/02/13 04:31:29;;;;;;;0.70;0.70;;;;;;;0.89;100.00;99401.22;5031425;28;20044;-58
2024/02/13 04:33:56;;;;;;;0.60;0.60;;;;;;;0.99;100.00;99399.19;5029354;28;20500;-58
2024/02/13 04:36:23;;;;;;;0.65;0.65;;;;;;;0.94;100.00;99406.00;5029931;28;20037;-58
2024/02/13 04:38:52;;;;;;;0.70;0.70;;;;;;;0.91;100.00;99401.88;5034332;28;20479;-58
2024/02/13 04:41:19;;;;;;;0.60;0.60;;;;;;;0.96;100.00;99401.38;5035429;28;20111;-58
2024/02/13 04:43:50;;;;;;;0.63;0.63;;;;;;;1.01;100.00;99399.81;5030217;28;20502;-58
2024/02/13 04:46:17;;;;;;;0.73;0.73;;;;;;;1.04;100.00;99404.75;5032641;28;20398;-59
2024/02/13 04:48:44;;;;;;;0.80;0.80;;;;;;;1.08;100.00;99395.50;5038238;28;20049;-59
2024/02/13 04:51:12;;;;;;;0.70;0.70;;;;;;;1.07;100.00;99400.94;5030732;28;20156;-59
2024/02/13 04:53:39;;;;;;;0.60;0.60;;;;;;;1.11;100.00;99398.78;5031768;28;20513;-59
2024/02/13 04:56:15;;;;;;;0.70;0.70;;;;;;;1.12;100.00;99403.06;5039206;28;20049;-59
2024/02/13 04:58:43;;;;;;;0.70;0.70;;;;;;;1.12;100.00;99413.59;5034008;28;20045;-59
2024/02/13 05:01:13;;;;;;;0.70;0.70;;;;;;;1.15;100.00;99406.19;5034282;28;20041;-58
2024/02/13 05:03:43;;;;;;;0.80;0.80;;;;;;;1.15;100.00;99408.81;5036505;28;20729;-59
2024/02/13 05:08:55;;;;;;;0.73;0.73;;;;;;;1.13;100.00;99420.56;5036153;28;20373;-58
2024/02/13 05:11:24;;;;;;;0.73;0.73;;;;;;;1.12;100.00;99429.44;5031335;28;20396;-58
2024/02/13 05:13:51;;;;;;;0.60;0.60;;;;;;;1.06;100.00;99421.25;5032441;28;20041;-58
2024/02/13 05:16:19;;;;;;;0.70;0.70;;;;;;;1.07;100.00;99420.25;5035292;28;20049;-59
2024/02/13 05:18:46;;;;;;;0.80;0.80;;;;;;;1.13;100.00;99417.91;5039197;28;20049;-59
2024/02/13 05:21:15;;;;;;;0.70;0.70;;;;;;;1.08;100.00;99418.44;5036329;28;20177;-58
2024/02/13 05:23:42;;;;;;;0.70;0.70;;;;;;;1.05;100.00;99427.53;5035943;28;20049;-59
2024/02/13 05:26:12;;;;;;;0.68;0.68;;;;;;;0.98;100.00;99423.94;5031605;28;20103;-58
2024/02/13 05:28:41;;;;;;;0.73;0.73;;;;;;;1.07;100.00;99422.91;5048182;28;20424;-58
2024/02/13 05:31:08;;;;;;;0.68;0.68;;;;;;;1.13;100.00;99417.91;5035096;28;20760;-59
2024/02/13 05:33:35;;;;;;;0.70;0.70;;;;;;;1.23;100.00;99421.13;5034543;28;20049;-58
2024/02/13 05:36:02;;;;;;;0.65;0.65;;;;;;;1.18;100.00;99419.00;5035177;28;20045;-58
2024/02/13 05:38:29;;;;;;;0.70;0.70;;;;;;;1.21;100.00;99428.41;5034219;28;20148;-58
2024/02/13 05:40:56;;;;;;;0.70;0.70;;;;;;;1.19;100.00;99423.28;5034250;28;20045;-59
2024/02/13 05:43:23;;;;;;;0.70;0.70;;;;;;;1.21;100.00;99423.94;5035844;28;20112;-58
2024/02/13 05:45:52;;;;;;;0.70;0.70;;;;;;;1.18;100.00;99426.13;5037678;28;20053;-59
2024/02/13 05:48:19;;;;;;;0.73;0.73;;;;;;;1.06;100.00;99415.16;5033359;28;20059;-59
2024/02/13 05:50:46;;;;;;;0.68;0.68;;;;;;;1.10;100.00;99428.81;5029863;28;20037;-59
2024/02/13 05:53:14;;;;;;;0.60;0.60;;;;;;;1.03;100.00;99421.59;5030793;28;20548;-61
2024/02/13 05:55:41;;;;;;;0.60;0.60;;;;;;;1.06;100.00;99421.25;5034816;28;20127;-58
2024/02/13 05:58:08;;;;;;;0.60;0.60;;;;;;;0.92;100.00;99422.00;5037562;28;20508;-58
2024/02/13 06:00:35;;;;;;;0.60;0.60;;;;;;;0.87;100.00;99419.06;5036071;28;20130;-58
2024/02/13 06:03:06;;;;;;;0.70;0.70;;;;;;;0.78;100.00;99428.03;5033980;28;20094;-59
2024/02/13 06:05:35;;;;;;;0.60;0.60;;;;;;;0.90;100.00;99431.06;5035639;28;20049;-59
2024/02/13 06:08:02;;;;;;;0.57;0.57;;;;;;;0.78;100.00;99428.84;5037456;28;20511;-59
2024/02/13 06:10:31;;;;;;;0.60;0.60;;;;;;;0.80;100.00;99420.75;5040641;28;20072;-59
2024/02/13 06:12:58;;;;;;;0.70;0.70;;;;;;;0.75;100.00;99431.00;5031409;28;20048;-58
2024/02/13 06:15:25;;;;;;;0.73;0.73;;;;;;;0.73;100.00;99427.75;5021099;28;20140;-58
2024/02/13 06:17:54;;;;;;;0.70;0.70;;;;;;;0.63;100.00;99436.69;5029481;28;20059;-59
2024/02/13 06:20:23;;;;;;;0.68;0.68;;;;;;;0.70;100.00;99441.25;5026833;28;20071;-59
2024/02/13 06:22:50;;;;;;;0.70;0.70;;;;;;;0.64;100.00;99448.06;5026306;28;20049;-59
2024/02/13 06:25:17;;;;;;;0.80;0.80;;;;;;;0.70;100.00;99457.94;5033578;28;20630;-59
2024/02/13 06:27:45;;;;;;;0.70;0.70;;;;;;;0.68;100.00;99453.81;5031779;28;20128;-58
2024/02/13 06:30:14;;;;;;;0.70;0.70;;;;;;;0.66;100.00;99453.97;5027811;28;20052;-58
2024/02/13 06:32:49;;;;;;;0.65;0.65;;;;;;;0.62;100.00;99460.59;5033847;28;20195;-59
2024/02/13 06:35:16;;;;;;;0.75;0.75;;;;;;;0.61;100.00;99465.06;5025584;28;20033;-59
2024/02/13 06:38:05;;;;;;;0.60;0.60;;;;;;;0.64;100.00;99464.69;5030647;28;20088;-59
2024/02/13 06:40:32;;;;;;;0.70;0.70;;;;;;;0.70;100.00;99467.63;5036142;28;20486;-58
2024/02/13 06:43:00;;;;;;;0.80;0.80;;;;;;;0.60;100.00;99479.25;5029804;28;20045;-58
2024/02/13 06:45:27;;;;;;;0.50;0.50;;;;;;;0.58;100.00;99480.41;5032772;28;20123;-59
2024/02/13 06:47:55;;;;;;;0.80;0.80;;;;;;;0.61;100.00;99477.44;5028369;28;20073;-59
2024/02/13 06:50:23;;;;;;;0.73;0.73;;;;;;;0.50;100.00;99476.00;5041155;28;20053;-59
2024/02/13 06:52:52;;;;;;;0.85;0.85;;;;;;;0.54;100.00;99487.00;5029826;28;20081;-59
2024/02/13 06:55:20;;;;;;;0.80;0.80;;;;;;;0.54;100.00;99489.66;5015296;28;20042;-59
2024/02/13 06:57:55;;;;;;;0.50;0.50;;;;;;;0.66;100.00;99492.75;5046595;28;20144;-58
2024/02/13 07:00:25;;;;;;;0.80;0.80;;;;;;;0.61;100.00;99498.53;5036253;28;20075;-59
2024/02/13 07:02:54;;;;;;;0.80;0.80;;;;;;;0.74;100.00;99492.69;5031141;28;20041;-58
2024/02/13 07:05:21;;;;;;;0.80;0.80;;;;;;;0.66;100.00;99488.28;5032349;28;20100;-59
2024/02/13 07:07:48;;;;;;;0.73;0.73;;;;;;;0.71;100.00;99490.41;5030239;28;20048;-59
2024/02/13 07:10:15;;;;;;;0.70;0.70;;;;;;;0.70;100.00;99492.22;5031725;28;20123;-59
2024/02/13 07:12:58;;;;;;;0.80;0.80;;;;;;;0.83;100.00;99487.22;5033191;28;20056;-59
2024/02/13 07:15:25;;;;;;;0.70;0.70;;;;;;;0.86;100.00;99496.59;5030962;28;20140;-59
2024/02/13 07:17:52;;;;;;;0.80;0.80;;;;;;;0.83;100.00;99500.41;5034113;28;20041;-59
2024/02/13 07:20:19;;;;;;;0.70;0.70;;;;;;;0.96;100.00;99509.56;5030426;28;20125;-59
2024/02/13 07:22:47;;;;;;;0.70;0.70;;;;;;;1.02;100.00;99515.00;5021015;28;20041;-59
2024/02/13 07:25:14;;;;;;;0.63;0.63;;;;;;;0.99;100.00;99520.59;5029425;28;20044;-59
2024/02/13 07:27:41;;;;;;;0.57;0.57;;;;;;;1.04;100.00;99523.53;5032728;28;20052;-59
2024/02/13 07:30:13;;;;;;;0.68;0.68;;;;;;;1.00;100.00;99530.19;5027341;28;20664;-59
2024/02/13 07:32:40;;;;;;;0.60;0.60;;;;;;;0.96;100.00;99523.59;5023166;28;20049;-59
2024/02/13 07:35:09;;;;;;;0.77;0.77;;;;;;;0.88;100.00;99531.56;5028870;28;20045;-59
2024/02/13 07:37:47;;;;;;;0.60;0.60;;;;;;;0.86;100.00;99546.72;5033976;28;20052;-58
2024/02/13 07:40:14;;;;;;;0.63;0.63;;;;;;;0.93;100.00;99547.69;5025265;28;20042;-58
2024/02/13 07:42:42;;;;;;;0.60;0.60;;;;;;;1.09;100.00;99544.13;5038815;28;20132;-59
2024/02/13 07:45:10;;;;;;;0.65;0.65;;;;;;;1.05;100.00;99548.97;5035631;28;20059;-58
2024/02/13 07:47:56;;;;;;;0.80;0.80;;;;;;;1.53;100.00;99543.53;5029899;28;20051;-59
2024/02/13 07:50:24;;;;;;;0.90;0.90;;;;;;;1.63;100.00;99543.31;5026956;28;20048;-59
2024/02/13 07:52:52;;;;;;;0.93;0.93;;;;;;;2.56;100.00;99542.09;5037445;28;20049;-58
2024/02/13 07:55:20;;;;;;;0.70;0.70;;;;;;;3.24;100.00;99543.56;5036942;28;20045;-58
2024/02/13 07:57:50;;;;;;;0.80;0.80;;;;;;;3.50;100.00;99547.50;5036691;28;20499;-58
2024/02/13 08:00:20;;;;;;;0.77;0.77;;;;;;;3.59;100.00;99551.66;5034872;28;20098;-58
2024/02/13 08:02:53;;;;;;;0.80;0.80;;;;;;;3.73;100.00;99544.66;5031464;28;20530;-59
2024/02/13 08:05:20;;;;;;;0.73;0.73;;;;;;;4.11;100.00;99539.84;5029821;28;20049;-58
2024/02/13 08:07:47;;;;;;;0.60;0.60;;;;;;;4.20;100.00;99551.16;5036576;28;20041;-59
2024/02/13 08:10:17;;;;;;;0.70;0.70;;;;;;;4.51;100.00;99544.63;5015457;28;20163;-59
2024/02/13 08:12:45;;;;;;;0.65;0.65;;;;;;;4.95;100.00;99549.53;5028398;28;20048;-59
2024/02/13 08:15:13;;;;;;;0.50;0.50;;;;;;;5.38;97.03;99546.63;5027829;28;20587;-59
2024/02/13 08:17:42;;;;;;;0.63;0.63;;;;;;;6.04;94.80;99542.41;5031525;28;20136;-59
2024/02/13 08:20:10;;;;;;;0.60;0.60;;;;;;;5.19;93.97;99536.75;5016719;28;20574;-59
2024/02/13 08:22:38;;;;;;;0.60;0.60;;;;;;;5.01;97.67;99539.16;5027204;28;20041;-59
2024/02/13 08:25:07;;;;;;;0.50;0.50;;;;;;;5.30;95.67;99546.81;5020310;28;20054;-58
2024/02/13 08:27:37;;;;;;;0.50;0.50;;;;;;;5.29;93.50;99547.84;5034560;28;20866;-58
2024/02/13 08:30:06;;;;;;;0.65;0.65;;;;;;;5.39;95.77;99542.97;5026933;28;20041;-59
2024/02/13 08:32:38;;;;;;;0.40;0.40;;;;;;;5.48;93.98;99545.41;5024164;28;20048;-59
2024/02/13 08:35:08;;;;;;;0.60;0.60;;;;;;;5.29;94.51;99553.16;5035948;28;20041;-59
2024/02/13 08:37:37;;;;;;;0.47;0.47;;;;;;;5.12;96.20;99555.34;5033990;28;20863;-59
2024/02/13 08:40:07;;;;;;;0.60;0.60;;;;;;;5.39;95.21;99553.59;5033287;28;20139;-58
2024/02/13 08:42:34;;;;;;;0.50;0.50;;;;;;;5.85;92.39;99565.31;5028584;28;20045;-59
2024/02/13 08:45:02;;;;;;;0.50;0.50;;;;;;;6.20;90.81;99565.16;5031481;28;20081;-59
2024/02/13 08:47:34;;;;;;;0.50;0.50;;;;;;;6.31;88.36;99561.03;5022613;28;20053;-59
2024/02/13 08:50:02;;;;;;;0.50;0.50;;;;;;;6.26;87.55;99566.97;5032148;28;20415;-58
2024/02/13 08:52:38;;;;;;;0.50;0.50;;;;;;;5.69;91.05;99569.19;5017006;28;20049;-59
2024/02/13 08:55:07;;;;;;;0.50;0.50;;;;;;;6.31;89.50;99572.50;5015423;28;20042;-59
2024/02/13 08:57:35;;;;;;;0.60;0.60;;;;;;;6.66;86.03;99575.75;5035259;28;20187;-59
2024/02/13 09:00:02;;;;;;;0.57;0.57;;;;;;;6.96;86.25;99585.09;5032485;28;20060;-59
2024/02/13 09:02:33;;;;;;;0.60;0.60;;;;;;;6.56;87.00;99591.31;5038171;28;20099;-59
2024/02/13 09:05:19;;;;;;;0.40;0.40;;;;;;;7.30;84.87;99592.75;5027073;28;20356;-59
2024/02/13 09:08:06;;;;;;;0.50;0.50;;;;;;;7.01;82.51;99587.94;5034901;28;20412;-59
2024/02/13 09:10:34;;;;;;;0.30;0.30;;;;;;;6.99;84.40;99592.66;5030582;28;20049;-59
2024/02/13 09:13:01;;;;;;;0.40;0.40;;;;;;;6.67;86.06;99587.22;5032376;28;20045;-59
2024/02/13 09:15:29;;;;;;;0.40;0.40;;;;;;;6.24;87.28;99588.50;5033654;28;20377;-59
2024/02/13 09:17:56;;;;;;;0.43;0.43;;;;;;;6.28;88.70;99590.75;5036166;28;20132;-59
2024/02/13 09:20:23;;;;;;;0.50;0.50;;;;;;;7.21;86.07;99594.00;5030991;28;20532;-59
2024/02/13 09:22:51;;;;;;;0.32;0.32;;;;;;;7.56;82.08;99597.16;5037852;28;20049;-59
2024/02/13 09:25:20;;;;;;;0.40;0.40;;;;;;;7.73;81.13;99591.28;5039386;28;20038;-59
2024/02/13 09:27:51;;;;;;;0.32;0.32;;;;;;;7.78;81.05;99596.78;5034180;28;20482;-59
2024/02/13 09:30:18;;;;;;;0.40;0.40;;;;;;;7.83;80.11;99599.63;5030022;28;20510;-59
2024/02/13 09:32:47;;;;;;;0.40;0.40;;;;;;;8.06;80.22;99600.91;5029786;28;20518;-59
2024/02/13 09:35:17;;;;;;;0.40;0.40;;;;;;;7.98;78.89;99599.34;5019626;28;20052;-59
2024/02/13 09:37:50;;;;;;;0.40;0.40;;;;;;;8.51;76.81;99598.09;5037413;28;20553;-59
2024/02/13 09:40:18;;;;;;;0.30;0.30;;;;;;;8.37;77.18;99595.53;5034979;28;20416;-59
2024/02/13 09:42:47;;;;;;;0.40;0.40;;;;;;;8.09;78.59;99597.84;5037937;28;20404;-59
2024/02/13 09:45:16;;;;;;;0.28;0.28;;;;;;;7.40;80.94;99597.63;5045891;28;20049;-59
2024/02/13 09:47:43;;;;;;;0.30;0.30;;;;;;;8.09;80.62;99601.31;5028544;28;20049;-58
2024/02/13 09:50:12;;;;;;;0.40;0.40;;;;;;;8.26;77.89;99600.75;5032462;28;20060;-59
2024/02/13 09:52:47;;;;;;;0.40;0.40;;;;;;;8.96;75.84;99598.69;5030697;28;20037;-59
2024/02/13 09:55:15;;;;;;;0.40;0.40;;;;;;;8.65;77.73;99594.28;5033669;28;20045;-59
2024/02/13 09:57:42;;;;;;;0.40;0.40;;;;;;;8.20;80.05;99594.44;5031051;28;20053;-59
2024/02/13 10:00:14;;;;;;;0.35;0.35;;;;;;;8.24;80.19;99594.81;5030117;28;20673;-59
2024/02/13 10:02:43;;;;;;;0.45;0.45;;;;;;;8.10;80.89;99602.94;5015429;28;20063;-61
2024/02/13 10:05:11;;;;;;;0.32;0.32;;;;;;;8.70;78.17;99615.81;5034517;28;20057;-61
2024/02/13 10:07:40;;;;;;;0.40;0.40;;;;;;;8.35;77.47;99621.63;5033902;28;20139;-59
2024/02/13 10:10:11;;;;;;;0.30;0.30;;;;;;;8.60;76.60;99620.84;5038010;28;20088;-59
2024/02/13 10:12:48;;;;;;;0.35;0.35;;;;;;;8.48;76.36;99619.94;5019981;28;20051;-60
2024/02/13 10:15:17;;;;;;;0.32;0.32;;;;;;;8.51;76.94;99633.69;5021734;28;20590;-59
2024/02/13 10:17:45;;;;;;;0.30;0.30;;;;;;;8.37;77.38;99629.44;5034959;28;20120;-58
2024/02/13 10:20:13;;;;;;;0.30;0.30;;;;;;;8.83;75.62;99631.69;5030055;28;20041;-58
2024/02/13 10:22:46;;;;;;;0.40;0.40;;;;;;;8.85;76.40;99620.81;5030775;28;20045;-58
2024/02/13 10:25:13;;;;;;;0.30;0.30;;;;;;;10.06;71.88;99611.03;5038591;28;20045;-58
2024/02/13 10:27:41;;;;;;;0.30;0.30;;;;;;;9.30;74.27;99612.47;5034662;28;20390;-59
2024/02/13 10:30:09;;;;;;;0.40;0.40;;;;;;;8.93;78.58;99614.34;5036304;28;20155;-59
2024/02/13 10:32:43;;;;;;;0.30;0.30;;;;;;;9.18;74.99;99609.72;5038886;28;20045;-59
2024/02/13 10:35:11;;;;;;;0.40;0.40;;;;;;;9.39;75.98;99610.34;5039457;28;20049;-59
2024/02/13 10:37:39;;;;;;;0.30;0.30;;;;;;;9.27;74.68;99618.28;5037090;28;20048;-59
2024/02/13 10:40:08;;;;;;;0.25;0.25;;;;;;;9.64;73.55;99624.41;5040368;28;20045;-59
2024/02/13 10:42:37;;;;;;;0.22;0.22;;;;;;;10.01;70.29;99618.94;5039415;28;20060;-58
2024/02/13 10:45:06;;;;;;;0.20;0.20;;;;;;;9.49;76.15;99621.31;5021545;28;20513;-59
2024/02/13 10:47:38;;;;;;;0.20;0.20;;;;;;;9.88;73.53;99635.19;5037762;28;20407;-59
2024/02/13 10:50:06;;;;;;;0.20;0.20;;;;;;;8.94;76.84;99632.03;5035557;28;20056;-58
2024/02/13 10:52:35;;;;;;;0.20;0.20;;;;;;;8.58;78.35;99636.28;5035542;28;20041;-59
2024/02/13 10:55:05;;;;;;;0.30;0.30;;;;;;;9.30;76.41;99633.88;5034870;28;20846;-58
2024/02/13 10:57:34;;;;;;;0.22;0.22;;;;;;;10.41;70.28;99628.22;5039284;28;20040;-59
2024/02/13 11:00:07;;;;;;;0.20;0.20;;;;;;;9.77;72.29;99630.63;5038080;28;20042;-59
2024/02/13 11:02:34;;;;;;;0.20;0.20;;;;;;;10.32;70.44;99619.72;5035999;28;20055;-59
2024/02/13 11:05:06;;;;;;;0.10;0.10;;;;;;;9.66;73.17;99616.13;5037035;28;20115;-59
2024/02/13 11:07:33;;;;;;;0.22;0.22;;;;;;;10.23;70.42;99613.84;5031186;28;20403;-59
2024/02/13 11:10:08;;;;;;;0.30;0.30;;;;;;;10.31;69.54;99607.38;5035031;28;20047;-59
2024/02/13 11:12:36;;;;;;;0.20;0.20;;;;;;;11.27;65.16;99607.88;5033580;28;20105;-59
2024/02/13 11:15:09;;;;;;;0.20;0.20;;;;;;;11.39;62.94;99615.91;5022098;28;20076;-59
2024/02/13 11:17:53;;;;;;;0.20;0.20;;;;;;;10.82;64.34;99623.81;5034705;28;20037;-58
2024/02/13 11:20:23;;;;;;;0.20;0.20;;;;;;;9.07;71.74;99634.56;5035212;28;20044;-58
2024/02/13 11:23:12;;;;;;;0.22;0.22;;;;;;;9.33;69.29;99627.25;5039299;28;20188;-59
2024/02/13 11:25:40;;;;;;;0.20;0.20;;;;;;;8.70;74.88;99628.38;5036470;28;20048;-59
2024/02/13 11:28:08;;;;;;;0.20;0.20;;;;;;;8.99;72.68;99629.50;5029147;28;20041;-59
2024/02/13 11:30:37;;;;;;;0.20;0.20;;;;;;;8.80;76.38;99624.13;5030198;28;20053;-59
2024/02/13 11:33:06;;;;;;;0.20;0.20;;;;;;;8.59;74.52;99627.25;5027499;28;20599;-58
2024/02/13 11:35:39;;;;;;;0.30;0.30;;;;;;;8.05;74.90;99631.31;5032962;28;20041;-58
2024/02/13 11:38:19;;;;;;;0.30;0.30;;;;;;;8.19;75.21;99633.69;5030045;28;20045;-58
2024/02/13 11:40:48;;;;;;;0.20;0.20;;;;;;;7.96;76.71;99623.59;5035862;28;20095;-59
2024/02/13 11:43:20;;;;;;;0.20;0.20;;;;;;;7.74;77.82;99635.63;5035349;28;20102;-59
2024/02/13 11:45:49;;;;;;;0.30;0.30;;;;;;;8.04;76.71;99632.34;5029502;28;20061;-59
2024/02/13 11:48:25;;;;;;;0.30;0.30;;;;;;;7.95;77.66;99627.28;5031640;28;20347;-59